sensor_id;sensor_type;location;lat;lon;timestamp;P1;durP1;ratioP1;P2;durP2;ratioP2
21943;SDS011;11136;48.778;9.126;2022-10-16T00:01:19;10.02;;;1.48;;
21943;SDS011;11136;48.778;9.126;2022-10-16T00:03:47;10.40;;;1.77;;
21943;SDS011;11136;48.778;9.126;2022-10-16T00:06:13;4.47;;;1.45;;
21943;SDS011;11136;48.778;9.126;2022-10-16T00:08:40;7.72;;;1.65;;
21943;SDS011;11136;48.778;9.126;2022-10-16T00:11:08;4.43;;;1.30;;
21943;SDS011;11136;48.778;9.126;2022-10-16T00:13:34;5.40;;;1.45;;
21943;SDS011;11136;48.778;9.126;2022-10-16T00:16:01;5.05;;;1.95;;
21943;SDS011;11136;48.778;9.126;2022-10-16T00:18:28;6.93;;;1.50;;
21943;SDS011;11136;48.778;9.126;2022-10-16T00:20:54;4.72;;;1.70;;
21943;SDS011;11136;48.778;9.126;2022-10-16T00:23:20;6.03;;;1.60;;
21943;SDS011;11136;48.778;9.126;2022-10-16T00:26:00;6.68;;;1.95;;
21943;SDS011;11136;48.778;9.126;2022-10-16T00:28:27;5.60;;;1.90;;
21943;SDS011;11136;48.778;9.126;2022-10-16T00:30:53;3.05;;;1.23;;
21943;SDS011;11136;48.778;9.126;2022-10-16T00:33:19;7.03;;;1.27;;
21943;SDS011;11136;48.778;9.126;2022-10-16T00:35:44;5.85;;;0.90;;
21943;SDS011;11136;48.778;9.126;2022-10-16T00:38:10;8.00;;;1.52;;
21943;SDS011;11136;48.778;9.126;2022-10-16T00:40:36;11.25;;;1.48;;
21943;SDS011;11136;48.778;9.126;2022-10-16T00:43:02;8.20;;;1.25;;
21943;SDS011;11136;48.778;9.126;2022-10-16T00:45:27;12.02;;;1.65;;
21943;SDS011;11136;48.778;9.126;2022-10-16T00:47:53;12.82;;;1.30;;
21943;SDS011;11136;48.778;9.126;2022-10-16T00:50:31;5.38;;;1.88;;
21943;SDS011;11136;48.778;9.126;2022-10-16T00:52:59;6.00;;;1.65;;
21943;SDS011;11136;48.778;9.126;2022-10-16T00:55:26;7.43;;;2.08;;
21943;SDS011;11136;48.778;9.126;2022-10-16T00:57:54;8.18;;;1.98;;
21943;SDS011;11136;48.778;9.126;2022-10-16T01:00:22;5.47;;;1.42;;
21943;SDS011;11136;48.778;9.126;2022-10-16T01:02:53;7.85;;;1.80;;
21943;SDS011;11136;48.778;9.126;2022-10-16T01:05:25;10.38;;;2.22;;
21943;SDS011;11136;48.778;9.126;2022-10-16T01:08:17;9.30;;;1.73;;
21943;SDS011;11136;48.778;9.126;2022-10-16T01:10:52;4.55;;;1.30;;
21943;SDS011;11136;48.778;9.126;2022-10-16T01:13:25;5.05;;;1.10;;
21943;SDS011;11136;48.778;9.126;2022-10-16T01:15:55;8.50;;;2.05;;
21943;SDS011;11136;48.778;9.126;2022-10-16T01:18:45;9.20;;;1.30;;
21943;SDS011;11136;48.778;9.126;2022-10-16T01:21:16;11.13;;;1.75;;
21943;SDS011;11136;48.778;9.126;2022-10-16T01:23:49;1.70;;;1.45;;
21943;SDS011;11136;48.778;9.126;2022-10-16T01:32:11;5.18;;;1.33;;
21943;SDS011;11136;48.778;9.126;2022-10-16T01:34:54;5.28;;;1.52;;
21943;SDS011;11136;48.778;9.126;2022-10-16T01:37:38;5.30;;;1.25;;
21943;SDS011;11136;48.778;9.126;2022-10-16T01:40:14;4.68;;;1.42;;
21943;SDS011;11136;48.778;9.126;2022-10-16T01:42:43;4.13;;;1.75;;
21943;SDS011;11136;48.778;9.126;2022-10-16T01:45:13;6.53;;;1.40;;
21943;SDS011;11136;48.778;9.126;2022-10-16T01:47:43;3.17;;;1.38;;
21943;SDS011;11136;48.778;9.126;2022-10-16T01:50:10;2.08;;;1.00;;
21943;SDS011;11136;48.778;9.126;2022-10-16T01:52:40;3.45;;;1.20;;
21943;SDS011;11136;48.778;9.126;2022-10-16T01:55:10;4.47;;;1.55;;
21943;SDS011;11136;48.778;9.126;2022-10-16T01:57:39;3.60;;;1.48;;
21943;SDS011;11136;48.778;9.126;2022-10-16T02:00:10;1.50;;;0.98;;
21943;SDS011;11136;48.778;9.126;2022-10-16T02:02:38;3.33;;;0.95;;
21943;SDS011;11136;48.778;9.126;2022-10-16T02:07:53;3.58;;;1.38;;
21943;SDS011;11136;48.778;9.126;2022-10-16T02:10:19;2.35;;;1.38;;
21943;SDS011;11136;48.778;9.126;2022-10-16T02:12:47;3.17;;;1.20;;
21943;SDS011;11136;48.778;9.126;2022-10-16T02:15:18;2.15;;;1.30;;
21943;SDS011;11136;48.778;9.126;2022-10-16T02:17:44;2.30;;;1.20;;
21943;SDS011;11136;48.778;9.126;2022-10-16T02:20:09;1.73;;;1.00;;
21943;SDS011;11136;48.778;9.126;2022-10-16T02:22:38;2.65;;;1.10;;
21943;SDS011;11136;48.778;9.126;2022-10-16T02:25:10;1.33;;;0.88;;
21943;SDS011;11136;48.778;9.126;2022-10-16T02:27:55;4.35;;;1.50;;
21943;SDS011;11136;48.778;9.126;2022-10-16T02:33:07;3.13;;;1.63;;
21943;SDS011;11136;48.778;9.126;2022-10-16T02:35:34;2.72;;;1.15;;
21943;SDS011;11136;48.778;9.126;2022-10-16T02:38:02;4.38;;;1.25;;
21943;SDS011;11136;48.778;9.126;2022-10-16T02:40:28;3.42;;;1.20;;
21943;SDS011;11136;48.778;9.126;2022-10-16T02:42:54;5.15;;;1.65;;
21943;SDS011;11136;48.778;9.126;2022-10-16T02:45:20;2.83;;;0.90;;
21943;SDS011;11136;48.778;9.126;2022-10-16T02:47:46;4.55;;;1.40;;
21943;SDS011;11136;48.778;9.126;2022-10-16T02:50:12;6.70;;;1.10;;
21943;SDS011;11136;48.778;9.126;2022-10-16T02:52:38;9.00;;;1.55;;
21943;SDS011;11136;48.778;9.126;2022-10-16T02:55:04;2.50;;;1.08;;
21943;SDS011;11136;48.778;9.126;2022-10-16T02:57:30;2.88;;;0.98;;
21943;SDS011;11136;48.778;9.126;2022-10-16T02:59:56;6.30;;;1.52;;
21943;SDS011;11136;48.778;9.126;2022-10-16T03:02:22;3.58;;;1.40;;
21943;SDS011;11136;48.778;9.126;2022-10-16T03:04:48;3.17;;;1.30;;
21943;SDS011;11136;48.778;9.126;2022-10-16T03:07:13;2.47;;;1.10;;
21943;SDS011;11136;48.778;9.126;2022-10-16T03:09:39;2.40;;;1.10;;
21943;SDS011;11136;48.778;9.126;2022-10-16T03:12:05;3.15;;;1.27;;
21943;SDS011;11136;48.778;9.126;2022-10-16T03:14:30;3.55;;;1.40;;
21943;SDS011;11136;48.778;9.126;2022-10-16T03:16:56;6.45;;;1.40;;
21943;SDS011;11136;48.778;9.126;2022-10-16T03:19:21;6.13;;;1.42;;
21943;SDS011;11136;48.778;9.126;2022-10-16T03:21:47;2.88;;;1.08;;
21943;SDS011;11136;48.778;9.126;2022-10-16T03:24:12;8.40;;;1.25;;
21943;SDS011;11136;48.778;9.126;2022-10-16T03:26:38;7.78;;;1.80;;
21943;SDS011;11136;48.778;9.126;2022-10-16T03:29:03;1.58;;;1.30;;
21943;SDS011;11136;48.778;9.126;2022-10-16T03:31:30;8.23;;;1.55;;
21943;SDS011;11136;48.778;9.126;2022-10-16T03:33:56;11.15;;;1.80;;
21943;SDS011;11136;48.778;9.126;2022-10-16T03:36:21;6.82;;;1.20;;
21943;SDS011;11136;48.778;9.126;2022-10-16T03:38:47;6.63;;;1.02;;
21943;SDS011;11136;48.778;9.126;2022-10-16T03:41:13;1.33;;;0.85;;
21943;SDS011;11136;48.778;9.126;2022-10-16T03:43:38;6.28;;;1.20;;
21943;SDS011;11136;48.778;9.126;2022-10-16T03:46:04;3.30;;;1.40;;
21943;SDS011;11136;48.778;9.126;2022-10-16T03:48:30;5.32;;;1.27;;
21943;SDS011;11136;48.778;9.126;2022-10-16T03:50:57;2.58;;;1.23;;
21943;SDS011;11136;48.778;9.126;2022-10-16T03:53:22;5.05;;;1.35;;
21943;SDS011;11136;48.778;9.126;2022-10-16T03:55:48;5.40;;;1.23;;
21943;SDS011;11136;48.778;9.126;2022-10-16T03:58:14;7.18;;;1.88;;
21943;SDS011;11136;48.778;9.126;2022-10-16T04:00:40;3.80;;;1.00;;
21943;SDS011;11136;48.778;9.126;2022-10-16T04:03:06;5.05;;;1.15;;
21943;SDS011;11136;48.778;9.126;2022-10-16T04:05:32;3.60;;;1.50;;
21943;SDS011;11136;48.778;9.126;2022-10-16T04:07:58;5.97;;;1.35;;
21943;SDS011;11136;48.778;9.126;2022-10-16T04:10:23;5.28;;;1.40;;
21943;SDS011;11136;48.778;9.126;2022-10-16T04:12:49;1.80;;;1.35;;
21943;SDS011;11136;48.778;9.126;2022-10-16T04:15:14;5.10;;;1.50;;
21943;SDS011;11136;48.778;9.126;2022-10-16T04:17:40;4.53;;;1.55;;
21943;SDS011;11136;48.778;9.126;2022-10-16T04:20:05;7.00;;;1.30;;
21943;SDS011;11136;48.778;9.126;2022-10-16T04:22:31;2.92;;;1.48;;
21943;SDS011;11136;48.778;9.126;2022-10-16T04:24:57;2.88;;;0.88;;
21943;SDS011;11136;48.778;9.126;2022-10-16T04:27:22;3.17;;;1.20;;
21943;SDS011;11136;48.778;9.126;2022-10-16T04:29:48;5.10;;;1.30;;
21943;SDS011;11136;48.778;9.126;2022-10-16T04:32:13;3.45;;;0.95;;
21943;SDS011;11136;48.778;9.126;2022-10-16T04:34:39;6.65;;;1.50;;
21943;SDS011;11136;48.778;9.126;2022-10-16T04:37:05;3.58;;;1.20;;
21943;SDS011;11136;48.778;9.126;2022-10-16T04:39:30;5.68;;;1.10;;
21943;SDS011;11136;48.778;9.126;2022-10-16T04:41:56;3.08;;;1.23;;
21943;SDS011;11136;48.778;9.126;2022-10-16T04:44:22;4.30;;;1.27;;
21943;SDS011;11136;48.778;9.126;2022-10-16T04:46:49;7.82;;;1.40;;
21943;SDS011;11136;48.778;9.126;2022-10-16T04:49:15;8.43;;;1.58;;
21943;SDS011;11136;48.778;9.126;2022-10-16T04:51:41;3.47;;;1.73;;
21943;SDS011;11136;48.778;9.126;2022-10-16T04:54:06;13.05;;;1.70;;
21943;SDS011;11136;48.778;9.126;2022-10-16T04:56:32;5.28;;;1.13;;
21943;SDS011;11136;48.778;9.126;2022-10-16T04:58:57;4.88;;;1.27;;
21943;SDS011;11136;48.778;9.126;2022-10-16T05:01:23;3.78;;;1.10;;
21943;SDS011;11136;48.778;9.126;2022-10-16T05:03:48;3.90;;;1.40;;
21943;SDS011;11136;48.778;9.126;2022-10-16T05:06:14;3.58;;;1.02;;
21943;SDS011;11136;48.778;9.126;2022-10-16T05:08:39;5.93;;;1.20;;
21943;SDS011;11136;48.778;9.126;2022-10-16T05:11:05;5.28;;;1.30;;
21943;SDS011;11136;48.778;9.126;2022-10-16T05:13:31;4.35;;;0.93;;
21943;SDS011;11136;48.778;9.126;2022-10-16T05:15:56;3.47;;;0.80;;
21943;SDS011;11136;48.778;9.126;2022-10-16T05:18:22;5.38;;;1.17;;
21943;SDS011;11136;48.778;9.126;2022-10-16T05:20:47;15.77;;;2.00;;
21943;SDS011;11136;48.778;9.126;2022-10-16T05:23:13;5.20;;;1.17;;
21943;SDS011;11136;48.778;9.126;2022-10-16T05:25:38;6.65;;;1.10;;
21943;SDS011;11136;48.778;9.126;2022-10-16T05:28:04;4.38;;;1.35;;
21943;SDS011;11136;48.778;9.126;2022-10-16T05:30:29;3.80;;;1.17;;
21943;SDS011;11136;48.778;9.126;2022-10-16T05:32:55;3.97;;;1.45;;
21943;SDS011;11136;48.778;9.126;2022-10-16T05:35:21;7.88;;;1.15;;
21943;SDS011;11136;48.778;9.126;2022-10-16T05:37:47;3.83;;;1.15;;
21943;SDS011;11136;48.778;9.126;2022-10-16T05:40:13;5.57;;;1.35;;
21943;SDS011;11136;48.778;9.126;2022-10-16T05:42:39;2.40;;;1.10;;
21943;SDS011;11136;48.778;9.126;2022-10-16T05:45:06;2.53;;;1.23;;
21943;SDS011;11136;48.778;9.126;2022-10-16T05:47:33;2.17;;;1.30;;
21943;SDS011;11136;48.778;9.126;2022-10-16T05:49:59;2.40;;;1.30;;
21943;SDS011;11136;48.778;9.126;2022-10-16T05:52:24;4.03;;;1.65;;
21943;SDS011;11136;48.778;9.126;2022-10-16T05:54:51;6.38;;;1.00;;
21943;SDS011;11136;48.778;9.126;2022-10-16T05:57:16;5.97;;;1.38;;
21943;SDS011;11136;48.778;9.126;2022-10-16T05:59:42;5.13;;;1.52;;
21943;SDS011;11136;48.778;9.126;2022-10-16T06:02:10;3.80;;;1.30;;
21943;SDS011;11136;48.778;9.126;2022-10-16T06:04:37;6.95;;;1.40;;
21943;SDS011;11136;48.778;9.126;2022-10-16T06:07:03;7.20;;;1.30;;
21943;SDS011;11136;48.778;9.126;2022-10-16T06:09:29;6.05;;;1.20;;
21943;SDS011;11136;48.778;9.126;2022-10-16T06:11:54;3.88;;;1.10;;
21943;SDS011;11136;48.778;9.126;2022-10-16T06:14:20;7.03;;;1.35;;
21943;SDS011;11136;48.778;9.126;2022-10-16T06:16:45;3.35;;;1.20;;
21943;SDS011;11136;48.778;9.126;2022-10-16T06:19:11;3.08;;;1.83;;
21943;SDS011;11136;48.778;9.126;2022-10-16T06:21:36;5.18;;;1.80;;
21943;SDS011;11136;48.778;9.126;2022-10-16T06:24:02;3.92;;;1.17;;
21943;SDS011;11136;48.778;9.126;2022-10-16T06:26:28;12.23;;;1.50;;
21943;SDS011;11136;48.778;9.126;2022-10-16T06:28:55;5.10;;;1.30;;
21943;SDS011;11136;48.778;9.126;2022-10-16T06:31:22;2.30;;;1.05;;
21943;SDS011;11136;48.778;9.126;2022-10-16T06:33:52;5.47;;;1.45;;
21943;SDS011;11136;48.778;9.126;2022-10-16T06:36:18;4.00;;;1.50;;
21943;SDS011;11136;48.778;9.126;2022-10-16T06:38:44;2.72;;;1.10;;
21943;SDS011;11136;48.778;9.126;2022-10-16T06:41:11;5.32;;;1.35;;
21943;SDS011;11136;48.778;9.126;2022-10-16T06:43:41;6.60;;;1.20;;
21943;SDS011;11136;48.778;9.126;2022-10-16T06:46:07;6.90;;;1.60;;
21943;SDS011;11136;48.778;9.126;2022-10-16T06:48:35;8.45;;;1.33;;
21943;SDS011;11136;48.778;9.126;2022-10-16T06:51:03;8.02;;;1.17;;
21943;SDS011;11136;48.778;9.126;2022-10-16T06:53:36;4.78;;;1.60;;
21943;SDS011;11136;48.778;9.126;2022-10-16T06:56:07;5.63;;;1.60;;
21943;SDS011;11136;48.778;9.126;2022-10-16T06:58:38;3.72;;;1.42;;
21943;SDS011;11136;48.778;9.126;2022-10-16T07:01:04;3.40;;;1.55;;
21943;SDS011;11136;48.778;9.126;2022-10-16T07:03:30;3.78;;;1.35;;
21943;SDS011;11136;48.778;9.126;2022-10-16T07:05:56;5.18;;;1.63;;
21943;SDS011;11136;48.778;9.126;2022-10-16T07:08:21;3.03;;;1.63;;
21943;SDS011;11136;48.778;9.126;2022-10-16T07:10:47;4.35;;;1.15;;
21943;SDS011;11136;48.778;9.126;2022-10-16T07:13:13;6.07;;;1.63;;
21943;SDS011;11136;48.778;9.126;2022-10-16T07:15:39;8.57;;;1.98;;
21943;SDS011;11136;48.778;9.126;2022-10-16T07:18:05;1.63;;;1.10;;
21943;SDS011;11136;48.778;9.126;2022-10-16T07:20:31;1.80;;;1.38;;
21943;SDS011;11136;48.778;9.126;2022-10-16T07:22:57;3.58;;;1.30;;
21943;SDS011;11136;48.778;9.126;2022-10-16T07:25:23;1.30;;;0.95;;
21943;SDS011;11136;48.778;9.126;2022-10-16T07:27:49;4.93;;;1.20;;
21943;SDS011;11136;48.778;9.126;2022-10-16T07:30:14;3.72;;;1.67;;
21943;SDS011;11136;48.778;9.126;2022-10-16T07:32:40;5.43;;;1.42;;
21943;SDS011;11136;48.778;9.126;2022-10-16T07:35:05;2.97;;;1.30;;
21943;SDS011;11136;48.778;9.126;2022-10-16T07:37:31;3.05;;;1.10;;
21943;SDS011;11136;48.778;9.126;2022-10-16T07:39:57;1.45;;;1.33;;
21943;SDS011;11136;48.778;9.126;2022-10-16T07:42:22;2.50;;;1.13;;
21943;SDS011;11136;48.778;9.126;2022-10-16T07:44:48;5.10;;;1.30;;
21943;SDS011;11136;48.778;9.126;2022-10-16T07:47:14;2.72;;;1.42;;
21943;SDS011;11136;48.778;9.126;2022-10-16T07:49:39;2.80;;;1.30;;
21943;SDS011;11136;48.778;9.126;2022-10-16T07:52:05;7.03;;;1.30;;
21943;SDS011;11136;48.778;9.126;2022-10-16T07:54:30;4.28;;;1.30;;
21943;SDS011;11136;48.778;9.126;2022-10-16T07:56:56;2.15;;;1.17;;
21943;SDS011;11136;48.778;9.126;2022-10-16T07:59:21;2.97;;;1.30;;
21943;SDS011;11136;48.778;9.126;2022-10-16T08:01:48;4.40;;;1.42;;
21943;SDS011;11136;48.778;9.126;2022-10-16T08:04:14;1.75;;;1.20;;
21943;SDS011;11136;48.778;9.126;2022-10-16T08:06:40;8.63;;;1.20;;
21943;SDS011;11136;48.778;9.126;2022-10-16T08:09:06;3.13;;;1.25;;
21943;SDS011;11136;48.778;9.126;2022-10-16T08:11:32;1.30;;;1.05;;
21943;SDS011;11136;48.778;9.126;2022-10-16T08:13:58;5.10;;;1.00;;
21943;SDS011;11136;48.778;9.126;2022-10-16T08:16:24;4.60;;;1.42;;
21943;SDS011;11136;48.778;9.126;2022-10-16T08:18:50;2.50;;;1.33;;
21943;SDS011;11136;48.778;9.126;2022-10-16T08:21:17;4.53;;;1.50;;
21943;SDS011;11136;48.778;9.126;2022-10-16T08:23:44;3.15;;;1.30;;
21943;SDS011;11136;48.778;9.126;2022-10-16T08:26:10;5.53;;;1.30;;
21943;SDS011;11136;48.778;9.126;2022-10-16T08:28:36;0.98;;;0.90;;
21943;SDS011;11136;48.778;9.126;2022-10-16T08:31:12;2.13;;;1.30;;
21943;SDS011;11136;48.778;9.126;2022-10-16T08:33:40;2.78;;;0.90;;
21943;SDS011;11136;48.778;9.126;2022-10-16T08:36:08;6.22;;;1.95;;
21943;SDS011;11136;48.778;9.126;2022-10-16T08:38:35;2.88;;;1.20;;
21943;SDS011;11136;48.778;9.126;2022-10-16T08:42:03;7.68;;;1.42;;
21943;SDS011;11136;48.778;9.126;2022-10-16T08:46:45;3.17;;;0.95;;
21943;SDS011;11136;48.778;9.126;2022-10-16T08:49:14;1.67;;;1.20;;
21943;SDS011;11136;48.778;9.126;2022-10-16T08:51:40;3.58;;;1.20;;
21943;SDS011;11136;48.778;9.126;2022-10-16T08:57:13;1.33;;;1.10;;
21943;SDS011;11136;48.778;9.126;2022-10-16T08:59:44;5.45;;;1.40;;
21943;SDS011;11136;48.778;9.126;2022-10-16T09:05:11;1.73;;;1.00;;
21943;SDS011;11136;48.778;9.126;2022-10-16T09:13:03;1.10;;;1.05;;
21943;SDS011;11136;48.778;9.126;2022-10-16T09:15:58;3.95;;;1.42;;
21943;SDS011;11136;48.778;9.126;2022-10-16T09:18:39;3.45;;;1.42;;
21943;SDS011;11136;48.778;9.126;2022-10-16T09:21:45;3.42;;;1.15;;
21943;SDS011;11136;48.778;9.126;2022-10-16T09:24:15;6.50;;;1.60;;
21943;SDS011;11136;48.778;9.126;2022-10-16T09:26:43;4.53;;;1.60;;
21943;SDS011;11136;48.778;9.126;2022-10-16T09:29:16;2.45;;;0.93;;
21943;SDS011;11136;48.778;9.126;2022-10-16T09:31:46;3.10;;;0.95;;
21943;SDS011;11136;48.778;9.126;2022-10-16T09:34:20;4.47;;;1.63;;
21943;SDS011;11136;48.778;9.126;2022-10-16T09:37:03;3.88;;;1.10;;
21943;SDS011;11136;48.778;9.126;2022-10-16T09:39:30;5.03;;;1.00;;
21943;SDS011;11136;48.778;9.126;2022-10-16T09:42:22;2.00;;;1.10;;
21943;SDS011;11136;48.778;9.126;2022-10-16T09:44:50;1.02;;;0.93;;
21943;SDS011;11136;48.778;9.126;2022-10-16T09:47:19;2.25;;;0.85;;
21943;SDS011;11136;48.778;9.126;2022-10-16T09:49:54;2.78;;;1.20;;
21943;SDS011;11136;48.778;9.126;2022-10-16T09:52:27;5.47;;;1.25;;
21943;SDS011;11136;48.778;9.126;2022-10-16T09:55:01;5.32;;;1.35;;
21943;SDS011;11136;48.778;9.126;2022-10-16T09:57:37;6.53;;;1.38;;
21943;SDS011;11136;48.778;9.126;2022-10-16T10:00:15;2.67;;;1.02;;
21943;SDS011;11136;48.778;9.126;2022-10-16T10:02:43;2.30;;;1.30;;
21943;SDS011;11136;48.778;9.126;2022-10-16T10:05:22;1.83;;;1.30;;
21943;SDS011;11136;48.778;9.126;2022-10-16T10:07:54;1.30;;;1.10;;
21943;SDS011;11136;48.778;9.126;2022-10-16T10:10:21;1.20;;;1.10;;
21943;SDS011;11136;48.778;9.126;2022-10-16T10:12:49;3.55;;;1.00;;
21943;SDS011;11136;48.778;9.126;2022-10-16T10:15:15;3.30;;;1.85;;
21943;SDS011;11136;48.778;9.126;2022-10-16T10:17:47;2.65;;;1.08;;
21943;SDS011;11136;48.778;9.126;2022-10-16T10:20:21;2.33;;;0.95;;
21943;SDS011;11136;48.778;9.126;2022-10-16T10:22:51;1.33;;;1.10;;
21943;SDS011;11136;48.778;9.126;2022-10-16T10:28:07;4.75;;;1.00;;
21943;SDS011;11136;48.778;9.126;2022-10-16T10:30:57;2.15;;;1.20;;
21943;SDS011;11136;48.778;9.126;2022-10-16T10:47:47;4.72;;;1.20;;
21943;SDS011;11136;48.778;9.126;2022-10-16T10:50:42;4.15;;;1.17;;
21943;SDS011;11136;48.778;9.126;2022-10-16T10:53:35;3.97;;;1.30;;
21943;SDS011;11136;48.778;9.126;2022-10-16T10:56:21;5.47;;;1.33;;
21943;SDS011;11136;48.778;9.126;2022-10-16T11:02:35;4.47;;;1.10;;
21943;SDS011;11136;48.778;9.126;2022-10-16T11:07:42;2.13;;;1.02;;
21943;SDS011;11136;48.778;9.126;2022-10-16T11:10:16;3.35;;;1.10;;
21943;SDS011;11136;48.778;9.126;2022-10-16T11:13:34;4.63;;;1.30;;
21943;SDS011;11136;48.778;9.126;2022-10-16T11:16:11;7.35;;;1.30;;
21943;SDS011;11136;48.778;9.126;2022-10-16T11:18:56;2.95;;;1.30;;
21943;SDS011;11136;48.778;9.126;2022-10-16T11:21:47;2.10;;;1.40;;
21943;SDS011;11136;48.778;9.126;2022-10-16T11:26:50;4.15;;;1.13;;
21943;SDS011;11136;48.778;9.126;2022-10-16T11:29:25;3.15;;;0.82;;
21943;SDS011;11136;48.778;9.126;2022-10-16T11:31:55;1.55;;;1.10;;
21943;SDS011;11136;48.778;9.126;2022-10-16T11:34:34;1.77;;;0.80;;
21943;SDS011;11136;48.778;9.126;2022-10-16T11:37:14;1.90;;;1.15;;
21943;SDS011;11136;48.778;9.126;2022-10-16T11:39:44;1.85;;;1.20;;
21943;SDS011;11136;48.778;9.126;2022-10-16T11:42:13;5.82;;;1.35;;
21943;SDS011;11136;48.778;9.126;2022-10-16T11:47:43;1.08;;;0.98;;
21943;SDS011;11136;48.778;9.126;2022-10-16T11:50:22;2.17;;;1.15;;
21943;SDS011;11136;48.778;9.126;2022-10-16T11:55:27;1.27;;;0.98;;
21943;SDS011;11136;48.778;9.126;2022-10-16T12:08:49;2.60;;;1.00;;
21943;SDS011;11136;48.778;9.126;2022-10-16T12:11:24;1.80;;;1.10;;
21943;SDS011;11136;48.778;9.126;2022-10-16T12:16:29;1.13;;;1.00;;
21943;SDS011;11136;48.778;9.126;2022-10-16T12:19:14;4.78;;;1.27;;
21943;SDS011;11136;48.778;9.126;2022-10-16T12:21:42;1.60;;;1.10;;
21943;SDS011;11136;48.778;9.126;2022-10-16T12:24:26;2.33;;;0.95;;
21943;SDS011;11136;48.778;9.126;2022-10-16T12:26:56;2.67;;;0.90;;
21943;SDS011;11136;48.778;9.126;2022-10-16T12:29:23;3.78;;;1.27;;
21943;SDS011;11136;48.778;9.126;2022-10-16T12:34:58;3.95;;;1.00;;
21943;SDS011;11136;48.778;9.126;2022-10-16T12:37:31;3.00;;;1.37;;
21943;SDS011;11136;48.778;9.126;2022-10-16T12:40:10;8.77;;;1.30;;
21943;SDS011;11136;48.778;9.126;2022-10-16T12:42:57;3.65;;;1.10;;
21943;SDS011;11136;48.778;9.126;2022-10-16T12:45:30;1.00;;;0.90;;
21943;SDS011;11136;48.778;9.126;2022-10-16T12:47:57;2.60;;;1.17;;
21943;SDS011;11136;48.778;9.126;2022-10-16T12:50:28;6.88;;;1.35;;
21943;SDS011;11136;48.778;9.126;2022-10-16T12:53:00;4.38;;;1.10;;
21943;SDS011;11136;48.778;9.126;2022-10-16T12:55:27;1.60;;;1.30;;
21943;SDS011;11136;48.778;9.126;2022-10-16T12:58:16;2.13;;;1.40;;
21943;SDS011;11136;48.778;9.126;2022-10-16T13:00:52;2.80;;;1.30;;
21943;SDS011;11136;48.778;9.126;2022-10-16T13:03:35;3.25;;;1.30;;
21943;SDS011;11136;48.778;9.126;2022-10-16T13:06:26;2.78;;;1.30;;
21943;SDS011;11136;48.778;9.126;2022-10-16T13:12:02;6.20;;;1.25;;
21943;SDS011;11136;48.778;9.126;2022-10-16T13:17:22;3.10;;;1.33;;
21943;SDS011;11136;48.778;9.126;2022-10-16T13:19:57;5.60;;;1.13;;
21943;SDS011;11136;48.778;9.126;2022-10-16T13:25:23;3.60;;;1.27;;
21943;SDS011;11136;48.778;9.126;2022-10-16T13:28:01;4.03;;;1.02;;
21943;SDS011;11136;48.778;9.126;2022-10-16T13:30:39;1.77;;;1.25;;
21943;SDS011;11136;48.778;9.126;2022-10-16T13:33:10;2.47;;;1.05;;
21943;SDS011;11136;48.778;9.126;2022-10-16T13:35:47;1.38;;;1.05;;
21943;SDS011;11136;48.778;9.126;2022-10-16T13:38:18;2.33;;;1.40;;
21943;SDS011;11136;48.778;9.126;2022-10-16T13:40:49;6.28;;;2.17;;
21943;SDS011;11136;48.778;9.126;2022-10-16T13:43:17;2.08;;;1.30;;
21943;SDS011;11136;48.778;9.126;2022-10-16T13:45:54;3.63;;;1.67;;
21943;SDS011;11136;48.778;9.126;2022-10-16T13:48:21;4.82;;;1.48;;
21943;SDS011;11136;48.778;9.126;2022-10-16T13:50:57;1.85;;;1.15;;
21943;SDS011;11136;48.778;9.126;2022-10-16T13:53:27;3.63;;;1.13;;
21943;SDS011;11136;48.778;9.126;2022-10-16T13:55:56;6.20;;;1.23;;
21943;SDS011;11136;48.778;9.126;2022-10-16T13:58:21;3.33;;;1.50;;
21943;SDS011;11136;48.778;9.126;2022-10-16T14:00:57;4.10;;;1.50;;
21943;SDS011;11136;48.778;9.126;2022-10-16T14:03:25;3.03;;;1.35;;
21943;SDS011;11136;48.778;9.126;2022-10-16T14:05:52;4.82;;;1.63;;
21943;SDS011;11136;48.778;9.126;2022-10-16T14:08:20;6.32;;;1.77;;
21943;SDS011;11136;48.778;9.126;2022-10-16T14:10:49;2.25;;;1.20;;
21943;SDS011;11136;48.778;9.126;2022-10-16T14:13:19;4.93;;;1.60;;
21943;SDS011;11136;48.778;9.126;2022-10-16T14:15:51;5.07;;;1.65;;
21943;SDS011;11136;48.778;9.126;2022-10-16T14:18:20;11.38;;;1.50;;
21943;SDS011;11136;48.778;9.126;2022-10-16T14:20:48;4.45;;;1.42;;
21943;SDS011;11136;48.778;9.126;2022-10-16T14:23:19;11.13;;;1.73;;
21943;SDS011;11136;48.778;9.126;2022-10-16T14:29:01;10.88;;;1.63;;
21943;SDS011;11136;48.778;9.126;2022-10-16T14:31:54;6.20;;;1.73;;
21943;SDS011;11136;48.778;9.126;2022-10-16T14:36:53;9.13;;;1.63;;
21943;SDS011;11136;48.778;9.126;2022-10-16T14:39:20;9.30;;;1.55;;
21943;SDS011;11136;48.778;9.126;2022-10-16T14:41:50;5.20;;;2.15;;
21943;SDS011;11136;48.778;9.126;2022-10-16T14:44:17;8.93;;;2.05;;
21943;SDS011;11136;48.778;9.126;2022-10-16T14:46:44;6.13;;;1.70;;
21943;SDS011;11136;48.778;9.126;2022-10-16T14:51:36;6.28;;;2.72;;
21943;SDS011;11136;48.778;9.126;2022-10-16T14:54:07;8.02;;;2.13;;
21943;SDS011;11136;48.778;9.126;2022-10-16T14:56:40;5.60;;;2.03;;
21943;SDS011;11136;48.778;9.126;2022-10-16T14:59:17;7.57;;;2.60;;
21943;SDS011;11136;48.778;9.126;2022-10-16T15:01:49;12.98;;;2.08;;
21943;SDS011;11136;48.778;9.126;2022-10-16T15:04:15;8.90;;;2.30;;
21943;SDS011;11136;48.778;9.126;2022-10-16T15:06:41;11.05;;;2.13;;
21943;SDS011;11136;48.778;9.126;2022-10-16T15:09:07;13.68;;;2.28;;
21943;SDS011;11136;48.778;9.126;2022-10-16T15:11:32;26.30;;;2.58;;
21943;SDS011;11136;48.778;9.126;2022-10-16T15:13:59;11.55;;;2.42;;
21943;SDS011;11136;48.778;9.126;2022-10-16T15:16:24;12.82;;;2.42;;
21943;SDS011;11136;48.778;9.126;2022-10-16T15:18:50;18.23;;;2.13;;
21943;SDS011;11136;48.778;9.126;2022-10-16T15:21:34;5.28;;;2.40;;
21943;SDS011;11136;48.778;9.126;2022-10-16T15:24:00;12.90;;;2.58;;
21943;SDS011;11136;48.778;9.126;2022-10-16T15:26:26;12.60;;;2.20;;
21943;SDS011;11136;48.778;9.126;2022-10-16T15:28:53;14.63;;;2.50;;
21943;SDS011;11136;48.778;9.126;2022-10-16T15:31:19;7.10;;;2.22;;
21943;SDS011;11136;48.778;9.126;2022-10-16T15:33:44;15.05;;;2.20;;
21943;SDS011;11136;48.778;9.126;2022-10-16T15:36:16;7.30;;;2.00;;
21943;SDS011;11136;48.778;9.126;2022-10-16T15:38:41;15.48;;;2.25;;
21943;SDS011;11136;48.778;9.126;2022-10-16T15:41:07;14.00;;;2.17;;
21943;SDS011;11136;48.778;9.126;2022-10-16T15:43:32;11.45;;;2.25;;
21943;SDS011;11136;48.778;9.126;2022-10-16T15:45:59;18.33;;;3.83;;
21943;SDS011;11136;48.778;9.126;2022-10-16T15:48:28;11.38;;;2.80;;
21943;SDS011;11136;48.778;9.126;2022-10-16T15:50:54;27.42;;;3.42;;
21943;SDS011;11136;48.778;9.126;2022-10-16T15:53:20;12.88;;;2.40;;
21943;SDS011;11136;48.778;9.126;2022-10-16T15:55:46;9.85;;;2.97;;
21943;SDS011;11136;48.778;9.126;2022-10-16T15:58:11;20.48;;;2.30;;
21943;SDS011;11136;48.778;9.126;2022-10-16T16:00:37;17.92;;;2.83;;
21943;SDS011;11136;48.778;9.126;2022-10-16T16:03:03;16.10;;;2.53;;
21943;SDS011;11136;48.778;9.126;2022-10-16T16:05:29;13.50;;;1.92;;
21943;SDS011;11136;48.778;9.126;2022-10-16T16:07:54;15.55;;;2.70;;
21943;SDS011;11136;48.778;9.126;2022-10-16T16:10:21;9.68;;;2.42;;
21943;SDS011;11136;48.778;9.126;2022-10-16T16:12:47;11.18;;;2.33;;
21943;SDS011;11136;48.778;9.126;2022-10-16T16:15:16;10.23;;;1.85;;
21943;SDS011;11136;48.778;9.126;2022-10-16T16:17:42;12.95;;;2.13;;
21943;SDS011;11136;48.778;9.126;2022-10-16T16:20:09;27.33;;;4.47;;
21943;SDS011;11136;48.778;9.126;2022-10-16T16:22:35;16.58;;;2.10;;
21943;SDS011;11136;48.778;9.126;2022-10-16T16:25:00;13.45;;;2.72;;
21943;SDS011;11136;48.778;9.126;2022-10-16T16:27:26;10.13;;;3.15;;
21943;SDS011;11136;48.778;9.126;2022-10-16T16:29:54;12.00;;;1.88;;